createdAt,value
2022-12-14T00:10:05.239Z,-4.98
2022-12-14T01:14:57.564Z,-4.54
2022-12-14T01:19:39.022Z,-4.53
2022-12-14T01:29:17.467Z,-4.61
2022-12-14T01:44:21.326Z,-4.11
2022-12-14T01:48:43.459Z,-4.48
2022-12-14T01:53:28.652Z,-4.74
2022-12-14T02:03:20.805Z,-4.60
2022-12-14T02:08:52.008Z,-4.40
2022-12-14T02:17:59.134Z,-4.55
2022-12-14T02:22:28.019Z,-4.48
2022-12-14T02:26:53.615Z,-4.45
2022-12-14T02:32:02.524Z,-4.58
2022-12-14T02:47:47.084Z,-4.43
2022-12-14T02:52:30.716Z,-4.45
2022-12-14T02:57:06.176Z,-4.48
2022-12-14T03:07:05.122Z,-4.50
2022-12-14T03:16:56.375Z,-4.19
2022-12-14T03:33:03.398Z,-4.23
2022-12-14T03:38:12.178Z,-4.15
2022-12-14T03:43:21.588Z,-4.12
2022-12-14T03:54:18.207Z,-4.16
2022-12-14T03:59:21.034Z,-4.14
2022-12-14T04:05:08.110Z,-3.82
2022-12-14T04:10:50.010Z,-3.58
2022-12-14T04:15:20.600Z,-3.70
2022-12-14T04:20:04.908Z,-3.54
2022-12-14T04:25:42.457Z,-3.62
2022-12-14T04:42:15.371Z,-3.59
2022-12-14T04:46:40.524Z,-3.66
2022-12-14T05:07:18.920Z,-3.57
2022-12-14T05:17:46.822Z,-3.95
2022-12-14T05:22:21.053Z,-3.76
2022-12-14T05:32:38.306Z,-3.75
2022-12-14T05:37:18.428Z,-3.44
2022-12-14T05:42:07.828Z,-3.47
2022-12-14T05:56:47.400Z,-3.56
2022-12-14T06:01:41.321Z,-3.43
2022-12-14T06:06:36.206Z,-3.66
2022-12-14T06:11:39.154Z,-3.59
2022-12-14T06:16:42.882Z,-3.56
2022-12-14T06:21:21.041Z,-3.47
2022-12-14T06:31:45.897Z,-3.53
2022-12-14T06:46:00.505Z,-3.50
2022-12-14T06:50:36.054Z,-3.44
2022-12-14T06:59:42.190Z,-3.39
2022-12-14T07:09:15.353Z,-3.46
2022-12-14T07:18:31.203Z,-3.41
2022-12-14T07:22:43.714Z,-3.26
2022-12-14T07:27:02.492Z,-3.25
2022-12-14T07:31:29.514Z,-3.25
2022-12-14T07:35:41.963Z,-3.49
2022-12-14T07:39:54.376Z,-3.36
2022-12-14T07:44:07.116Z,-3.22
2022-12-14T07:48:22.061Z,-3.45
2022-12-14T07:52:37.661Z,-3.18
2022-12-14T07:57:04.147Z,-3.18
2022-12-14T08:01:25.734Z,-3.07
2022-12-14T08:05:47.076Z,-3.11
2022-12-14T08:10:05.230Z,-3.00
2022-12-14T08:14:45.320Z,-3.02
2022-12-14T08:18:59.577Z,-2.60
2022-12-14T08:23:19.018Z,-2.76
2022-12-14T08:27:44.652Z,-2.53
2022-12-14T08:32:01.812Z,-2.29
2022-12-14T08:36:34.478Z,-2.42
2022-12-14T08:41:33.491Z,-1.89
2022-12-14T08:46:06.403Z,-2.01
2022-12-14T08:50:51.331Z,-2.16
2022-12-14T08:55:03.937Z,-2.05
2022-12-14T08:59:52.276Z,-1.96
2022-12-14T09:04:18.192Z,-1.94
2022-12-14T09:08:38.580Z,-1.77
2022-12-14T09:12:53.835Z,-1.89
2022-12-14T09:17:09.505Z,-1.92
2022-12-14T09:21:23.567Z,-1.94
2022-12-14T09:25:35.911Z,-2.08
2022-12-14T09:29:49.271Z,-2.14
2022-12-14T09:34:01.922Z,-1.69
2022-12-14T09:38:20.385Z,-1.40
2022-12-14T09:42:57.101Z,-1.72
2022-12-14T09:47:30.655Z,-1.72
2022-12-14T09:51:48.674Z,-1.59
2022-12-14T09:56:21.665Z,-1.40
2022-12-14T10:00:38.793Z,-1.06
2022-12-14T10:05:20.649Z,-1.04
2022-12-14T10:10:16.486Z,-0.60
2022-12-14T10:14:32.284Z,-0.76
2022-12-14T10:19:03.018Z,-1.02
2022-12-14T10:23:23.085Z,-0.96
2022-12-14T10:28:10.469Z,-0.51
2022-12-14T10:32:34.624Z,-0.39
2022-12-14T10:37:15.617Z,-0.61
2022-12-14T10:41:53.865Z,-0.83
2022-12-14T10:46:15.766Z,-0.59
2022-12-14T10:50:50.042Z,-0.56
2022-12-14T10:55:07.845Z,-0.50
2022-12-14T10:59:36.689Z,-0.30
2022-12-14T11:04:01.474Z,0.02
2022-12-14T11:08:48.291Z,-0.05
2022-12-14T11:13:18.338Z,0.21
2022-12-14T11:17:36.096Z,0.20
2022-12-14T11:21:50.095Z,0.28
2022-12-14T11:26:06.456Z,0.21
2022-12-14T11:30:18.912Z,0.27
2022-12-14T11:34:35.812Z,0.26
2022-12-14T11:38:56.748Z,0.20
2022-12-14T11:43:36.462Z,0.00
2022-12-14T11:48:17.941Z,0.20
2022-12-14T11:52:39.634Z,0.07
2022-12-14T11:56:56.767Z,0.17
2022-12-14T12:01:17.334Z,0.20
2022-12-14T12:05:34.803Z,-0.18
2022-12-14T12:09:47.243Z,-0.25
2022-12-14T12:14:02.457Z,0.02
2022-12-14T12:18:17.886Z,-0.38
2022-12-14T12:22:32.255Z,-0.19
2022-12-14T12:26:50.801Z,-0.04
2022-12-14T12:31:15.767Z,0.11
2022-12-14T12:35:37.909Z,-0.30
2022-12-14T12:39:59.822Z,-0.13
2022-12-14T12:44:25.487Z,-0.40
2022-12-14T12:48:46.756Z,-0.14
2022-12-14T12:53:15.699Z,-0.14
2022-12-14T12:57:35.399Z,-0.35
2022-12-14T13:01:52.192Z,-0.31
2022-12-14T13:06:22.666Z,-0.22
2022-12-14T13:10:50.494Z,-0.17
2022-12-14T13:15:36.530Z,-0.21
2022-12-14T13:19:54.408Z,-0.44
2022-12-14T13:24:17.160Z,-0.25
2022-12-14T13:28:32.561Z,-0.10
2022-12-14T13:33:14.347Z,-0.33
2022-12-14T13:38:20.917Z,-0.38
2022-12-14T13:42:51.909Z,-0.11
2022-12-14T13:47:14.344Z,0.04
2022-12-14T13:51:41.267Z,0.21
2022-12-14T13:55:57.275Z,0.16
2022-12-14T14:00:48.435Z,0.48
2022-12-14T14:05:15.805Z,0.34
2022-12-14T14:09:31.495Z,0.34
2022-12-14T14:13:43.854Z,0.48
2022-12-14T14:18:24.416Z,0.57
2022-12-14T14:22:36.774Z,0.40
2022-12-14T14:27:07.978Z,0.56
2022-12-14T14:31:20.761Z,0.37
2022-12-14T14:35:38.585Z,0.02
2022-12-14T14:40:23.532Z,0.24
2022-12-14T14:44:52.835Z,0.38
2022-12-14T14:49:07.563Z,0.31
2022-12-14T14:53:31.622Z,0.22
2022-12-14T14:57:59.587Z,0.35
2022-12-14T15:02:42.365Z,0.37
2022-12-14T15:06:59.563Z,0.47
2022-12-14T15:11:23.622Z,0.37
2022-12-14T15:15:40.732Z,0.49
2022-12-14T15:19:58.186Z,0.24
2022-12-14T15:24:14.165Z,0.29
2022-12-14T15:28:30.265Z,0.41
2022-12-14T15:32:47.995Z,0.38
2022-12-14T15:37:00.520Z,0.44
2022-12-14T15:41:18.603Z,0.44
2022-12-14T15:45:42.076Z,0.56
2022-12-14T15:50:00.478Z,0.65
2022-12-14T15:54:18.830Z,0.68
2022-12-14T15:58:35.523Z,0.68
2022-12-14T16:02:48.334Z,0.48
2022-12-14T16:07:26.658Z,0.55
2022-12-14T16:11:46.547Z,0.62
2022-12-14T16:16:00.274Z,0.41
2022-12-14T16:20:16.303Z,0.43
2022-12-14T16:24:28.597Z,0.55
2022-12-14T16:28:41.045Z,0.55
2022-12-14T16:33:05.430Z,0.58
2022-12-14T16:37:34.481Z,0.80
2022-12-14T16:41:57.898Z,0.80
2022-12-14T16:46:20.366Z,0.80
2022-12-14T16:50:55.711Z,0.71
2022-12-14T16:55:17.307Z,0.96
2022-12-14T16:59:39.522Z,0.86
2022-12-14T17:03:55.856Z,0.95
2022-12-14T17:08:09.263Z,0.92
2022-12-14T17:12:21.672Z,0.90
2022-12-14T17:16:34.301Z,0.88
2022-12-14T17:20:46.710Z,0.83
2022-12-14T17:25:00.182Z,0.82
2022-12-14T17:29:24.515Z,0.75
2022-12-14T17:33:37.569Z,0.76
2022-12-14T17:37:49.908Z,0.75
2022-12-14T17:42:02.258Z,0.80
2022-12-14T17:46:14.684Z,0.91
2022-12-14T17:50:27.101Z,0.84
2022-12-14T17:54:39.439Z,0.85
2022-12-14T17:58:51.904Z,0.92
2022-12-14T18:03:05.157Z,0.95
2022-12-14T18:07:18.342Z,0.95
2022-12-14T18:11:30.780Z,0.83
2022-12-14T18:15:49.560Z,0.85
2022-12-14T18:20:02.524Z,0.81
2022-12-14T18:24:15.483Z,0.86
2022-12-14T18:28:31.962Z,0.74
2022-12-14T18:32:55.673Z,0.77
2022-12-14T18:37:23.801Z,0.65
2022-12-14T18:41:37.749Z,0.67
2022-12-14T18:45:52.259Z,0.70
2022-12-14T18:50:04.804Z,0.75
2022-12-14T18:54:17.123Z,0.72
2022-12-14T18:58:29.973Z,0.85
2022-12-14T19:02:43.816Z,0.88
2022-12-14T19:06:56.273Z,0.69
2022-12-14T19:11:20.403Z,0.92
2022-12-14T19:15:35.503Z,0.86
2022-12-14T19:19:48.258Z,0.77
2022-12-14T19:33:37.035Z,0.76
2022-12-14T19:37:51.632Z,0.89
2022-12-14T19:42:04.046Z,0.89
2022-12-14T19:46:16.991Z,0.90
2022-12-14T19:50:29.439Z,0.87
2022-12-14T19:54:41.766Z,0.84
2022-12-14T19:58:58.447Z,0.80
2022-12-14T20:03:10.953Z,0.89
2022-12-14T20:07:23.532Z,0.80
2022-12-14T20:11:36.050Z,0.77
2022-12-14T20:15:50.089Z,0.78
2022-12-14T20:20:02.538Z,0.72
2022-12-14T20:24:14.905Z,0.73
2022-12-14T20:28:27.482Z,0.66
2022-12-14T20:32:41.887Z,0.71
2022-12-14T20:36:54.154Z,0.65
2022-12-14T20:41:12.358Z,0.66
2022-12-14T20:45:25.758Z,0.66
2022-12-14T20:49:39.655Z,0.61
2022-12-14T20:53:52.215Z,0.67
2022-12-14T20:58:05.947Z,0.60
2022-12-14T21:02:25.610Z,0.65
2022-12-14T21:06:42.871Z,0.57
2022-12-14T21:11:25.244Z,0.65
2022-12-14T21:15:37.601Z,0.52
2022-12-14T21:19:49.983Z,0.66
2022-12-14T21:24:02.339Z,0.61
2022-12-14T21:28:14.690Z,0.59
2022-12-14T21:32:27.170Z,0.61
2022-12-14T21:36:46.026Z,0.53
2022-12-14T21:41:17.104Z,0.57
2022-12-14T21:45:29.519Z,0.31
2022-12-14T21:49:48.525Z,0.31
2022-12-14T21:54:01.697Z,0.28
2022-12-14T21:58:16.644Z,0.26
2022-12-14T22:02:29.771Z,0.27
2022-12-14T22:06:42.296Z,0.28
2022-12-14T22:10:54.578Z,0.11
2022-12-14T22:15:07.334Z,0.13
2022-12-14T22:19:25.079Z,0.10
2022-12-14T22:23:43.149Z,0.14
2022-12-14T22:27:55.925Z,-0.04
2022-12-14T22:32:09.133Z,-0.08
2022-12-14T22:36:23.093Z,-0.25
2022-12-14T22:40:35.755Z,-0.47
2022-12-14T22:44:58.032Z,-0.60
2022-12-14T22:49:16.051Z,-0.59
2022-12-14T22:53:29.333Z,-0.50
2022-12-14T22:57:46.660Z,-0.53
2022-12-14T23:02:00.340Z,-0.46
2022-12-14T23:06:19.825Z,-0.37
2022-12-14T23:10:50.655Z,-0.62
2022-12-14T23:15:21.668Z,-0.63
2022-12-14T23:19:52.354Z,-0.67
2022-12-14T23:24:23.584Z,-0.57
2022-12-14T23:28:54.318Z,-0.78
2022-12-14T23:33:24.998Z,-0.80
2022-12-14T23:37:55.741Z,-0.76
2022-12-14T23:42:26.810Z,-0.90
2022-12-14T23:46:58.182Z,-0.92
2022-12-14T23:51:28.836Z,-0.80
2022-12-14T23:55:59.715Z,-0.84
